Time,TemperatureF,DewpointF,PressureIn,WindDirection,WindDirectionDegrees,WindSpeedMPH,WindSpeedGustMPH,Humidity,HourlyPrecipIn,Conditions,Clouds,dailyrainin,SolarRadiationWatts/m^2,SoftwareType,DateUTC
2013-07-19 00:22:00,68.0,36.0,-100.00,West,259,1.0,6.0,31,0.00,,,0.00,0.000000,,2013-07-19 06:22:00,
2013-07-19 00:32:00,68.0,36.0,-100.00,West,259,1.0,6.0,31,0.00,,,0.00,0.000000,,2013-07-19 06:32:00,
2013-07-19 00:43:00,68.0,36.0,-100.00,West,259,1.0,6.0,31,0.00,,,0.00,0.000000,,2013-07-19 06:43:00,
2013-07-19 00:52:00,68.0,36.0,-100.00,West,259,1.0,6.0,31,0.00,,,0.00,0.000000,,2013-07-19 06:52:00,
2013-07-19 01:43:00,67.0,37.0,-100.00,SW,215,1.0,3.0,33,0.00,,,0.00,0.000000,,2013-07-19 07:43:00,
2013-07-19 01:53:00,67.0,37.0,-100.00,SW,215,1.0,3.0,33,0.00,,,0.00,0.000000,,2013-07-19 07:53:00,
2013-07-19 02:43:00,66.0,38.0,-100.00,SSW,193,2.0,4.0,35,0.00,,,-99.99,0.000000,,2013-07-19 08:43:00,
2013-07-19 02:52:00,66.0,38.0,-100.00,SSW,193,2.0,4.0,35,0.00,,,-99.99,0.000000,,2013-07-19 08:52:00,
2013-07-19 03:43:00,63.0,38.0,-100.00,ESE,102,0.0,3.0,39,0.00,,,-99.99,0.000000,,2013-07-19 09:43:00,
2013-07-19 03:52:00,63.0,38.0,-100.00,ESE,102,0.0,3.0,39,0.00,,,-99.99,0.000000,,2013-07-19 09:52:00,
2013-07-19 04:43:00,62.0,39.0,-100.00,East,94,1.0,2.0,42,0.00,,,-99.99,0.000000,,2013-07-19 10:43:00,
2013-07-19 04:52:00,62.0,39.0,-100.00,East,94,1.0,2.0,42,0.00,,,-99.99,0.000000,,2013-07-19 10:52:00,
2013-07-19 05:33:00,61.0,38.0,-100.00,ESE,104,0.0,2.0,42,0.00,,,0.00,0.000000,,2013-07-19 11:33:00,
2013-07-19 05:43:00,61.0,38.0,-100.00,ESE,104,0.0,2.0,42,0.00,,,0.00,0.000000,,2013-07-19 11:43:00,
2013-07-19 05:52:00,61.0,38.0,-100.00,ESE,104,0.0,2.0,42,0.00,,,0.00,0.000000,,2013-07-19 11:52:00,
2013-07-19 06:22:00,59.0,37.0,-100.00,East,99,1.0,3.0,43,0.00,,,-99.99,0.000000,,2013-07-19 12:22:00,
2013-07-19 06:33:00,59.0,37.0,-100.00,East,99,1.0,3.0,43,0.00,,,-99.99,0.000000,,2013-07-19 12:33:00,
2013-07-19 06:43:00,59.0,37.0,-100.00,East,99,1.0,3.0,43,0.00,,,-99.99,0.000000,,2013-07-19 12:43:00,
2013-07-19 06:52:00,59.0,37.0,-100.00,East,99,1.0,3.0,43,0.00,,,-99.99,0.000000,,2013-07-19 12:52:00,
2013-07-19 07:32:00,61.0,37.0,-100.00,East,99,1.0,2.0,41,0.00,,,0.00,6.000000,,2013-07-19 13:32:00,
2013-07-19 07:43:00,61.0,37.0,-100.00,East,99,1.0,2.0,41,0.00,,,0.00,6.000000,,2013-07-19 13:43:00,
2013-07-19 07:53:00,61.0,37.0,-100.00,East,99,1.0,2.0,41,0.00,,,0.00,6.000000,,2013-07-19 13:53:00,
2013-07-19 09:43:00,66.0,43.0,-100.00,SE,146,0.0,2.0,44,0.00,,,-99.99,77.000000,,2013-07-19 15:43:00,
2013-07-19 09:52:00,66.0,43.0,-100.00,SE,146,0.0,2.0,44,0.00,,,-99.99,77.000000,,2013-07-19 15:52:00,
2013-07-19 10:32:00,75.0,41.0,-100.00,SSW,193,1.0,3.0,29,0.00,,,0.00,376.000000,,2013-07-19 16:32:00,
2013-07-19 10:43:00,75.0,41.0,-100.00,SSW,193,1.0,3.0,29,0.00,,,0.00,376.000000,,2013-07-19 16:43:00,
2013-07-19 10:52:00,75.0,41.0,-100.00,SSW,193,1.0,3.0,29,0.00,,,0.00,376.000000,,2013-07-19 16:52:00,
2013-07-19 11:32:00,79.0,44.0,-100.00,WNW,301,3.0,4.0,29,0.00,,,0.00,658.000000,,2013-07-19 17:32:00,
2013-07-19 11:43:00,79.0,44.0,-100.00,WNW,301,3.0,4.0,29,0.00,,,0.00,658.000000,,2013-07-19 17:43:00,
2013-07-19 11:52:00,79.0,44.0,-100.00,WNW,301,3.0,4.0,29,0.00,,,0.00,658.000000,,2013-07-19 17:52:00,
2013-07-19 12:21:00,83.0,44.0,-100.00,West,268,2.0,6.0,25,0.00,,,0.00,800.000000,,2013-07-19 18:21:00,
2013-07-19 12:32:00,83.0,44.0,-100.00,West,268,2.0,6.0,25,0.00,,,0.00,800.000000,,2013-07-19 18:32:00,
2013-07-19 12:42:00,83.0,44.0,-100.00,West,268,2.0,6.0,25,0.00,,,0.00,800.000000,,2013-07-19 18:42:00,
2013-07-19 12:52:00,83.0,44.0,-100.00,West,268,2.0,6.0,25,0.00,,,0.00,800.000000,,2013-07-19 18:52:00,
2013-07-19 13:43:00,86.0,39.0,-100.00,NW,306,3.0,7.0,19,0.00,,,0.00,899.000000,,2013-07-19 19:43:00,
2013-07-19 13:52:00,86.0,39.0,-100.00,NW,306,3.0,7.0,19,0.00,,,0.00,899.000000,,2013-07-19 19:52:00,
2013-07-19 14:43:00,88.0,33.0,-100.00,WNW,294,4.0,10.0,14,0.00,,,0.00,946.000000,,2013-07-19 20:43:00,
2013-07-19 14:52:00,88.0,33.0,-100.00,WNW,294,4.0,10.0,14,0.00,,,0.00,946.000000,,2013-07-19 20:52:00,
2013-07-19 15:42:00,90.0,34.0,-100.00,NW,304,2.0,9.0,14,0.00,,,-99.99,935.000000,,2013-07-19 21:42:00,
2013-07-19 15:52:00,90.0,34.0,-100.00,NW,304,2.0,9.0,14,0.00,,,-99.99,935.000000,,2013-07-19 21:52:00,
2013-07-19 16:42:00,91.0,33.0,-100.00,West,277,3.0,11.0,13,0.00,,,0.00,885.000000,,2013-07-19 22:42:00,
2013-07-19 16:52:00,91.0,33.0,-100.00,West,277,3.0,11.0,13,0.00,,,0.00,885.000000,,2013-07-19 22:52:00,
2013-07-19 17:43:00,91.0,29.0,-100.00,WNW,287,3.0,10.0,11,0.00,,,0.00,785.000000,,2013-07-19 23:43:00,
2013-07-19 17:52:00,91.0,29.0,-100.00,WNW,287,3.0,10.0,11,0.00,,,0.00,785.000000,,2013-07-19 23:52:00,
2013-07-19 18:43:00,89.0,34.0,-100.00,West,276,5.0,12.0,14,0.00,,,0.00,641.000000,,2013-07-20 00:43:00,
2013-07-19 18:52:00,89.0,34.0,-100.00,West,276,5.0,12.0,14,0.00,,,0.00,641.000000,,2013-07-20 00:52:00,
2013-07-19 19:32:00,88.0,38.0,-100.00,NW,312,3.0,13.0,17,0.00,,,0.00,433.000000,,2013-07-20 01:32:00,
2013-07-19 19:52:00,88.0,38.0,-100.00,NW,312,3.0,13.0,17,0.00,,,0.00,433.000000,,2013-07-20 01:52:00,
2013-07-19 20:32:00,86.0,39.0,-100.00,WNW,284,3.0,13.0,19,0.00,,,0.00,279.000000,,2013-07-20 02:32:00,
2013-07-19 20:43:00,86.0,39.0,-100.00,WNW,284,3.0,13.0,19,0.00,,,0.00,279.000000,,2013-07-20 02:43:00,
2013-07-19 20:52:00,86.0,39.0,-100.00,WNW,284,3.0,13.0,19,0.00,,,0.00,279.000000,,2013-07-20 02:52:00,
2013-07-19 21:22:00,80.0,39.0,-100.00,NW,320,1.0,6.0,23,0.00,,,0.00,91.000000,,2013-07-20 03:22:00,
2013-07-19 21:32:00,80.0,39.0,-100.00,NW,320,1.0,6.0,23,0.00,,,0.00,91.000000,,2013-07-20 03:32:00,
2013-07-19 21:44:00,80.0,39.0,-100.00,NW,320,1.0,6.0,23,0.00,,,0.00,91.000000,,2013-07-20 03:44:00,
2013-07-19 21:52:00,80.0,39.0,-100.00,NW,320,1.0,6.0,23,0.00,,,0.00,91.000000,,2013-07-20 03:52:00,
2013-07-19 22:22:00,74.0,39.0,-100.00,WSW,251,1.0,4.0,28,0.00,,,0.00,6.000000,,2013-07-20 04:22:00,
2013-07-19 22:33:00,74.0,39.0,-100.00,WSW,251,1.0,4.0,28,0.00,,,0.00,6.000000,,2013-07-20 04:33:00,
2013-07-19 22:44:00,74.0,39.0,-100.00,WSW,251,1.0,4.0,28,0.00,,,0.00,6.000000,,2013-07-20 04:44:00,
2013-07-19 22:52:00,74.0,39.0,-100.00,WSW,251,1.0,4.0,28,0.00,,,0.00,6.000000,,2013-07-20 04:52:00,
2013-07-19 23:22:00,71.0,38.0,-100.00,West,270,1.0,6.0,30,0.00,,,0.00,0.000000,,2013-07-20 05:22:00,
2013-07-19 23:32:00,71.0,38.0,-100.00,West,270,1.0,6.0,30,0.00,,,0.00,0.000000,,2013-07-20 05:32:00,
2013-07-19 23:52:00,71.0,38.0,-100.00,West,270,1.0,6.0,30,0.00,,,0.00,0.000000,,2013-07-20 05:52:00,